Latest Weather Observations for North Head

IDN60801

Issued at 10:03 am EST Wednesday 8 July 2015 (issued every 30 minutes, with the page automatically refreshed every 10 minutes)

About weather observations | Map of weather stations | Latest weather observations for NSW | Other Formats
Station Details ID: 066197 Name: NORTH HEAD Lat: -33.82 Lon: 151.30 Height: 90.0 m
Data from the previous 72 hours. | See also: Recent months for locations in New South Wales
Date/Time
EST
Temp
°C
App
Temp
°C
Dew
Point
Rel
Hum
%
Delta-T
°C
Wind Press
QNH
hPa
Press
MSL
hPa
Rain
since 9 am
mm
Dir
 
Spd
km/h
Gust
km/h
Spd
kts
Gust
kts
08/10:00am - - - - - W 9 15 5 8 - - -
08/09:30am - - - - - W 11 15 6 8 - - -
08/09:00am - - - - - W 13 19 7 10 - - -
08/08:30am - - - - - W 13 17 7 9 - - -
08/08:00am - - - - - W 11 17 6 9 - - -
08/07:30am - - - - - W 13 17 7 9 - - -
08/07:00am - - - - - W 11 13 6 7 - - -
08/06:30am - - - - - W 9 15 5 8 - - -
08/06:00am - - - - - W 11 17 6 9 - - -
08/05:30am - - - - - WNW 15 19 8 10 - - -
08/05:00am - - - - - WNW 9 13 5 7 - - -
08/04:30am - - - - - WNW 13 17 7 9 - - -
08/04:00am - - - - - WSW 11 19 6 10 - - -
08/03:30am - - - - - WSW 15 26 8 14 - - -
08/03:00am - - - - - W 11 17 6 9 - - -
08/02:30am - - - - - WNW 13 15 7 8 - - -
08/02:00am - - - - - W 11 17 6 9 - - -
08/01:30am - - - - - SW 13 20 7 11 - - -
08/01:00am - - - - - SW 11 19 6 10 - - -
08/12:30am - - - - - SW 15 22 8 12 - - -
08/12:00am - - - - - W 11 13 6 7 - - -
 
Date/Time
EST
Temp
°C
App
Temp
°C
Dew
Point
Rel
Hum
%
Delta-T
°C
Wind Press
QNH
hPa
Press
MSL
hPa
Rain
since 9 am
mm
Dir
 
Spd
km/h
Gust
km/h
Spd
kts
Gust
kts
07/11:30pm - - - - - WSW 11 19 6 10 - - -
07/11:00pm - - - - - WSW 15 22 8 12 - - -
07/10:30pm - - - - - W 11 19 6 10 - - -
07/10:00pm - - - - - WSW 13 22 7 12 - - -
07/09:30pm - - - - - W 7 11 4 6 - - -
07/09:00pm - - - - - SW 11 20 6 11 - - -
07/08:30pm - - - - - SW 11 19 6 10 - - -
07/08:00pm - - - - - WSW 13 20 7 11 - - -
07/07:30pm - - - - - WSW 9 15 5 8 - - -
07/07:00pm - - - - - SSW 15 28 8 15 - - -
07/06:30pm - - - - - SW 13 20 7 11 - - -
07/06:00pm - - - - - SW 19 30 10 16 - - -
07/05:30pm - - - - - SW 15 22 8 12 - - -
07/05:00pm - - - - - WSW 13 20 7 11 - - -
07/04:30pm - - - - - SSW 19 32 10 17 - - -
07/04:00pm - - - - - SSW 11 19 6 10 - - -
07/03:30pm - - - - - SW 15 24 8 13 - - -
07/03:00pm - - - - - SW 15 24 8 13 - - -
07/02:30pm - - - - - SSW 19 28 10 15 - - -
07/02:00pm - - - - - SSW 17 33 9 18 - - -
07/01:30pm - - - - - SSW 19 32 10 17 - - -
07/01:00pm - - - - - SSW 17 28 9 15 - - -
07/12:30pm - - - - - SW 19 30 10 16 - - -
07/12:00pm - - - - - SW 19 32 10 17 - - -
07/11:30am - - - - - SSW 19 28 10 15 - - -
07/11:00am - - - - - SSW 20 32 11 17 - - -
07/10:30am - - - - - WSW 15 22 8 12 - - -
07/10:00am - - - - - WSW 17 28 9 15 - - -
07/09:30am - - - - - WSW 19 26 10 14 - - -
07/09:00am - - - - - WSW 19 26 10 14 - - -
07/08:30am - - - - - WSW 19 30 10 16 - - -
07/08:00am - - - - - W 19 26 10 14 - - -
07/07:30am - - - - - W 19 28 10 15 - - -
07/07:00am - - - - - W 20 28 11 15 - - -
07/06:30am - - - - - W 19 24 10 13 - - -
07/06:00am - - - - - W 17 26 9 14 - - -
07/05:30am - - - - - W 20 28 11 15 - - -
07/05:00am - - - - - W 20 28 11 15 - - -
07/04:30am - - - - - W 17 26 9 14 - - -
07/04:00am - - - - - W 20 28 11 15 - - -
07/03:30am - - - - - W 17 24 9 13 - - -
07/03:00am - - - - - W 20 28 11 15 - - -
07/02:30am - - - - - W 22 33 12 18 - - -
07/02:00am - - - - - W 20 30 11 16 - - -
07/01:30am - - - - - W 17 24 9 13 - - -
07/01:00am - - - - - WNW 19 24 10 13 - - -
07/12:30am - - - - - W 19 22 10 12 - - -
07/12:00am - - - - - W 19 24 10 13 - - -
 
Date/Time
EST
Temp
°C
App
Temp
°C
Dew
Point
Rel
Hum
%
Delta-T
°C
Wind Press
QNH
hPa
Press
MSL
hPa
Rain
since 9 am
mm
Dir
 
Spd
km/h
Gust
km/h
Spd
kts
Gust
kts
06/11:30pm - - - - - W 17 22 9 12 - - -
06/11:00pm - - - - - W 17 22 9 12 - - -
06/10:30pm - - - - - W 15 22 8 12 - - -
06/10:00pm - - - - - W 19 24 10 13 - - -
06/09:30pm - - - - - W 19 28 10 15 - - -
06/09:00pm - - - - - W 19 28 10 15 - - -
06/08:30pm - - - - - W 19 28 10 15 - - -
06/08:00pm - - - - - W 22 39 12 21 - - -
06/07:30pm - - - - - W 22 37 12 20 - - -
06/07:00pm - - - - - W 19 32 10 17 - - -
06/06:30pm - - - - - W 20 32 11 17 - - -
06/06:00pm - - - - - W 22 39 12 21 - - -
06/05:30pm - - - - - WSW 20 33 11 18 - - -
06/05:00pm - - - - - WSW 20 32 11 17 - - -
06/04:30pm - - - - - WSW 20 33 11 18 - - -
06/04:00pm - - - - - WSW 15 20 8 11 - - -
06/03:30pm - - - - - W 13 19 7 10 - - -
06/03:00pm - - - - - WNW 9 17 5 9 - - -
06/02:30pm - - - - - W 9 17 5 9 - - -
06/02:00pm - - - - - WNW 15 22 8 12 - - -
06/01:30pm - - - - - W 15 28 8 15 - - -
06/01:00pm - - - - - WNW 15 22 8 12 - - -
06/12:30pm - - - - - WNW 15 20 8 11 - - -
06/12:00pm - - - - - WNW 15 24 8 13 - - -
06/11:30am - - - - - W 15 24 8 13 - - -
06/11:00am - - - - - W 17 22 9 12 - - -
06/10:30am - - - - - WNW 15 20 8 11 - - -
06/10:00am - - - - - W 15 20 8 11 - - -
06/09:30am - - - - - NW 11 19 6 10 - - -
06/09:00am - - - - - WNW 15 24 8 13 - - -
06/08:30am - - - - - WNW 13 19 7 10 - - -
06/08:00am - - - - - WNW 11 15 6 8 - - -
06/07:30am - - - - - WNW 11 13 6 7 - - -
06/07:00am - - - - - WNW 9 11 5 6 - - -
06/06:30am - - - - - WNW 9 13 5 7 - - -
06/06:00am - - - - - WNW 11 13 6 7 - - -
06/05:30am - - - - - WNW 17 20 9 11 - - -
06/05:00am - - - - - WNW 15 20 8 11 - - -
06/04:30am - - - - - NW 13 17 7 9 - - -
06/04:00am - - - - - WNW 13 19 7 10 - - -
06/03:30am - - - - - WNW 13 17 7 9 - - -
06/03:00am - - - - - W 17 20 9 11 - - -
06/02:30am - - - - - WNW 17 22 9 12 - - -
06/02:00am - - - - - WNW 17 22 9 12 - - -
06/01:30am - - - - - WNW 17 20 9 11 - - -
06/01:00am - - - - - WNW 17 19 9 10 - - -
06/12:30am - - - - - WNW 15 20 8 11 - - -
06/12:00am - - - - - WNW 19 26 10 14 - - -
 
Date/Time
EST
Temp
°C
App
Temp
°C
Dew
Point
Rel
Hum
%
Delta-T
°C
Wind Press
QNH
hPa
Press
MSL
hPa
Rain
since 9 am
mm
Dir
 
Spd
km/h
Gust
km/h
Spd
kts
Gust
kts
05/11:30pm - - - - - WNW 17 28 9 15 - - -
05/11:00pm - - - - - WNW 15 20 8 11 - - -
05/10:30pm - - - - - WNW 15 17 8 9 - - -
05/10:00pm - - - - - NW 11 17 6 9 - - -
05/09:30pm - - - - - N 11 15 6 8 - - -
05/09:00pm - - - - - N 11 15 6 8 - - -
05/08:30pm - - - - - N 11 13 6 7 - - -
05/08:00pm - - - - - N 11 15 6 8 - - -
05/07:30pm - - - - - N 9 13 5 7 - - -
05/07:00pm - - - - - N 11 13 6 7 - - -
05/06:30pm - - - - - N 7 9 4 5 - - -
05/06:00pm - - - - - N 9 11 5 6 - - -
05/05:30pm - - - - - N 9 11 5 6 - - -
05/05:00pm - - - - - N 9 11 5 6 - - -
05/04:30pm - - - - - NNE 9 13 5 7 - - -
05/04:00pm - - - - - NNE 9 15 5 8 - - -
05/03:30pm - - - - - NNE 9 13 5 7 - - -
05/03:00pm - - - - - NNE 9 13 5 7 - - -
05/02:30pm - - - - - NNE 9 13 5 7 - - -
05/02:00pm - - - - - NNE 9 15 5 8 - - -
05/01:30pm - - - - - NNE 9 13 5 7 - - -
05/01:00pm - - - - - NNE 9 13 5 7 - - -
05/12:30pm - - - - - NE 6 11 3 6 - - -
05/12:00pm - - - - - NW 4 7 2 4 - - -
05/11:30am - - - - - WNW 7 11 4 6 - - -
05/11:00am - - - - - WNW 11 15 6 8 - - -
05/10:30am - - - - - W 11 15 6 8 - - -

Other Formats:

Comma delimited format used in spreadsheet applications
http://www.bom.gov.au/fwo/IDN60801/IDN60801.95768.axf

JavaScript Object Notation format (JSON) in row-major order
http://www.bom.gov.au/fwo/IDN60801/IDN60801.95768.json